sensor_id;sensor_type;location;lat;lon;timestamp;P1;durP1;ratioP1;P2;durP2;ratioP2
75589;SDS011;64169;47.240;11.312;2023-07-13T00:00:41;5.43;;;1.80;;
75589;SDS011;64169;47.240;11.312;2023-07-13T00:03:07;5.35;;;2.00;;
75589;SDS011;64169;47.240;11.312;2023-07-13T00:05:32;4.65;;;1.65;;
75589;SDS011;64169;47.240;11.312;2023-07-13T00:07:58;3.45;;;1.30;;
75589;SDS011;64169;47.240;11.312;2023-07-13T00:10:24;6.50;;;1.70;;
75589;SDS011;64169;47.240;11.312;2023-07-13T00:12:49;4.85;;;1.55;;
75589;SDS011;64169;47.240;11.312;2023-07-13T00:15:19;4.97;;;1.42;;
75589;SDS011;64169;47.240;11.312;2023-07-13T00:17:50;6.45;;;1.63;;
75589;SDS011;64169;47.240;11.312;2023-07-13T00:20:22;4.65;;;1.60;;
75589;SDS011;64169;47.240;11.312;2023-07-13T00:25:16;3.90;;;1.50;;
75589;SDS011;64169;47.240;11.312;2023-07-13T00:27:43;4.90;;;1.63;;
75589;SDS011;64169;47.240;11.312;2023-07-13T00:30:09;5.03;;;1.73;;
75589;SDS011;64169;47.240;11.312;2023-07-13T00:32:35;4.95;;;1.67;;
75589;SDS011;64169;47.240;11.312;2023-07-13T00:35:01;5.55;;;1.75;;
75589;SDS011;64169;47.240;11.312;2023-07-13T00:37:28;4.80;;;1.73;;
75589;SDS011;64169;47.240;11.312;2023-07-13T00:39:53;5.65;;;1.88;;
75589;SDS011;64169;47.240;11.312;2023-07-13T00:42:19;5.05;;;1.80;;
75589;SDS011;64169;47.240;11.312;2023-07-13T00:45:01;4.32;;;1.42;;
75589;SDS011;64169;47.240;11.312;2023-07-13T00:47:38;5.18;;;1.55;;
75589;SDS011;64169;47.240;11.312;2023-07-13T00:50:05;5.45;;;1.50;;
75589;SDS011;64169;47.240;11.312;2023-07-13T00:52:33;4.93;;;1.60;;
75589;SDS011;64169;47.240;11.312;2023-07-13T00:55:00;4.72;;;1.35;;
75589;SDS011;64169;47.240;11.312;2023-07-13T00:57:26;5.57;;;1.52;;
75589;SDS011;64169;47.240;11.312;2023-07-13T00:59:54;5.85;;;1.60;;
75589;SDS011;64169;47.240;11.312;2023-07-13T01:02:20;11.48;;;1.83;;
75589;SDS011;64169;47.240;11.312;2023-07-13T01:04:47;5.32;;;1.38;;
75589;SDS011;64169;47.240;11.312;2023-07-13T01:07:13;5.00;;;1.38;;
75589;SDS011;64169;47.240;11.312;2023-07-13T01:09:38;20.90;;;2.38;;
75589;SDS011;64169;47.240;11.312;2023-07-13T01:12:04;15.73;;;2.05;;
75589;SDS011;64169;47.240;11.312;2023-07-13T01:14:30;9.75;;;1.73;;
75589;SDS011;64169;47.240;11.312;2023-07-13T01:16:55;4.50;;;1.83;;
75589;SDS011;64169;47.240;11.312;2023-07-13T01:22:13;21.25;;;2.75;;
75589;SDS011;64169;47.240;11.312;2023-07-13T01:24:41;5.82;;;1.35;;
75589;SDS011;64169;47.240;11.312;2023-07-13T01:27:08;5.53;;;1.55;;
75589;SDS011;64169;47.240;11.312;2023-07-13T01:29:36;5.82;;;1.60;;
75589;SDS011;64169;47.240;11.312;2023-07-13T01:32:07;7.38;;;2.15;;
75589;SDS011;64169;47.240;11.312;2023-07-13T01:34:37;37.70;;;4.28;;
75589;SDS011;64169;47.240;11.312;2023-07-13T01:37:06;6.15;;;2.10;;
75589;SDS011;64169;47.240;11.312;2023-07-13T01:39:32;6.57;;;2.00;;
75589;SDS011;64169;47.240;11.312;2023-07-13T01:41:58;5.75;;;2.05;;
75589;SDS011;64169;47.240;11.312;2023-07-13T01:44:23;4.75;;;1.85;;
75589;SDS011;64169;47.240;11.312;2023-07-13T01:46:49;4.72;;;1.50;;
75589;SDS011;64169;47.240;11.312;2023-07-13T01:49:14;4.60;;;1.45;;
75589;SDS011;64169;47.240;11.312;2023-07-13T01:51:40;3.70;;;1.25;;
75589;SDS011;64169;47.240;11.312;2023-07-13T01:54:05;3.70;;;1.25;;
75589;SDS011;64169;47.240;11.312;2023-07-13T01:56:30;4.90;;;1.25;;
75589;SDS011;64169;47.240;11.312;2023-07-13T01:58:56;9.10;;;1.45;;
75589;SDS011;64169;47.240;11.312;2023-07-13T02:01:22;4.75;;;1.45;;
75589;SDS011;64169;47.240;11.312;2023-07-13T02:03:47;5.75;;;1.88;;
75589;SDS011;64169;47.240;11.312;2023-07-13T02:06:12;4.22;;;1.42;;
75589;SDS011;64169;47.240;11.312;2023-07-13T02:08:38;4.50;;;1.60;;
75589;SDS011;64169;47.240;11.312;2023-07-13T02:11:05;4.38;;;1.40;;
75589;SDS011;64169;47.240;11.312;2023-07-13T02:13:30;5.35;;;1.60;;
75589;SDS011;64169;47.240;11.312;2023-07-13T02:15:55;5.65;;;1.48;;
75589;SDS011;64169;47.240;11.312;2023-07-13T02:18:21;4.90;;;1.90;;
75589;SDS011;64169;47.240;11.312;2023-07-13T02:20:46;5.13;;;1.88;;
75589;SDS011;64169;47.240;11.312;2023-07-13T02:23:12;5.40;;;1.70;;
75589;SDS011;64169;47.240;11.312;2023-07-13T02:25:37;4.53;;;1.85;;
75589;SDS011;64169;47.240;11.312;2023-07-13T02:28:03;7.20;;;1.80;;
75589;SDS011;64169;47.240;11.312;2023-07-13T02:30:28;4.05;;;1.60;;
75589;SDS011;64169;47.240;11.312;2023-07-13T02:32:55;7.72;;;1.90;;
75589;SDS011;64169;47.240;11.312;2023-07-13T02:35:21;5.72;;;1.90;;
75589;SDS011;64169;47.240;11.312;2023-07-13T02:37:46;4.88;;;1.65;;
75589;SDS011;64169;47.240;11.312;2023-07-13T02:40:12;5.05;;;1.55;;
75589;SDS011;64169;47.240;11.312;2023-07-13T02:42:37;4.70;;;1.35;;
75589;SDS011;64169;47.240;11.312;2023-07-13T02:45:03;5.18;;;1.30;;
75589;SDS011;64169;47.240;11.312;2023-07-13T02:47:31;4.15;;;1.20;;
75589;SDS011;64169;47.240;11.312;2023-07-13T02:49:57;5.55;;;1.40;;
75589;SDS011;64169;47.240;11.312;2023-07-13T02:52:22;4.88;;;2.30;;
75589;SDS011;64169;47.240;11.312;2023-07-13T02:54:48;4.55;;;1.20;;
75589;SDS011;64169;47.240;11.312;2023-07-13T02:57:13;3.28;;;1.00;;
75589;SDS011;64169;47.240;11.312;2023-07-13T02:59:39;5.15;;;1.17;;
75589;SDS011;64169;47.240;11.312;2023-07-13T03:02:04;3.65;;;1.17;;
75589;SDS011;64169;47.240;11.312;2023-07-13T03:04:30;4.78;;;1.48;;
75589;SDS011;64169;47.240;11.312;2023-07-13T03:07:00;4.10;;;1.17;;
75589;SDS011;64169;47.240;11.312;2023-07-13T03:09:25;3.33;;;1.30;;
75589;SDS011;64169;47.240;11.312;2023-07-13T03:11:54;3.38;;;1.15;;
75589;SDS011;64169;47.240;11.312;2023-07-13T03:14:20;6.60;;;1.33;;
75589;SDS011;64169;47.240;11.312;2023-07-13T03:16:46;4.45;;;1.30;;
75589;SDS011;64169;47.240;11.312;2023-07-13T03:19:12;4.32;;;1.25;;
75589;SDS011;64169;47.240;11.312;2023-07-13T03:21:37;5.10;;;1.10;;
75589;SDS011;64169;47.240;11.312;2023-07-13T03:24:02;5.47;;;1.15;;
75589;SDS011;64169;47.240;11.312;2023-07-13T03:26:28;3.42;;;1.20;;
75589;SDS011;64169;47.240;11.312;2023-07-13T03:28:54;6.82;;;1.25;;
75589;SDS011;64169;47.240;11.312;2023-07-13T03:31:21;3.00;;;1.10;;
75589;SDS011;64169;47.240;11.312;2023-07-13T03:33:48;4.38;;;1.20;;
75589;SDS011;64169;47.240;11.312;2023-07-13T03:36:15;3.67;;;1.20;;
75589;SDS011;64169;47.240;11.312;2023-07-13T03:38:49;4.00;;;1.27;;
75589;SDS011;64169;47.240;11.312;2023-07-13T03:41:16;3.38;;;1.00;;
75589;SDS011;64169;47.240;11.312;2023-07-13T03:43:42;6.07;;;1.17;;
75589;SDS011;64169;47.240;11.312;2023-07-13T03:46:07;3.47;;;1.02;;
75589;SDS011;64169;47.240;11.312;2023-07-13T03:48:33;3.53;;;1.10;;
75589;SDS011;64169;47.240;11.312;2023-07-13T03:50:59;5.13;;;1.35;;
75589;SDS011;64169;47.240;11.312;2023-07-13T03:53:24;6.38;;;1.60;;
75589;SDS011;64169;47.240;11.312;2023-07-13T03:55:49;4.35;;;1.42;;
75589;SDS011;64169;47.240;11.312;2023-07-13T03:58:29;6.55;;;1.27;;
75589;SDS011;64169;47.240;11.312;2023-07-13T04:00:59;6.78;;;2.15;;
75589;SDS011;64169;47.240;11.312;2023-07-13T04:03:26;4.68;;;1.58;;
75589;SDS011;64169;47.240;11.312;2023-07-13T04:05:53;4.13;;;1.35;;
75589;SDS011;64169;47.240;11.312;2023-07-13T04:08:28;4.88;;;1.40;;
75589;SDS011;64169;47.240;11.312;2023-07-13T04:10:56;4.30;;;1.30;;
75589;SDS011;64169;47.240;11.312;2023-07-13T04:13:21;3.97;;;1.38;;
75589;SDS011;64169;47.240;11.312;2023-07-13T04:15:47;4.53;;;1.50;;
75589;SDS011;64169;47.240;11.312;2023-07-13T04:18:12;5.45;;;1.92;;
75589;SDS011;64169;47.240;11.312;2023-07-13T04:20:38;6.57;;;1.88;;
75589;SDS011;64169;47.240;11.312;2023-07-13T04:23:03;5.97;;;1.85;;
75589;SDS011;64169;47.240;11.312;2023-07-13T04:25:29;4.22;;;1.38;;
75589;SDS011;64169;47.240;11.312;2023-07-13T04:27:54;4.03;;;1.33;;
75589;SDS011;64169;47.240;11.312;2023-07-13T04:30:20;5.45;;;2.22;;
75589;SDS011;64169;47.240;11.312;2023-07-13T04:32:46;6.43;;;1.73;;
75589;SDS011;64169;47.240;11.312;2023-07-13T04:35:12;5.53;;;1.75;;
75589;SDS011;64169;47.240;11.312;2023-07-13T04:37:39;3.88;;;1.27;;
75589;SDS011;64169;47.240;11.312;2023-07-13T04:40:05;4.90;;;1.55;;
75589;SDS011;64169;47.240;11.312;2023-07-13T04:42:31;4.07;;;1.17;;
75589;SDS011;64169;47.240;11.312;2023-07-13T04:44:56;4.93;;;1.35;;
75589;SDS011;64169;47.240;11.312;2023-07-13T04:47:21;4.57;;;1.40;;
75589;SDS011;64169;47.240;11.312;2023-07-13T04:49:47;3.95;;;1.17;;
75589;SDS011;64169;47.240;11.312;2023-07-13T04:52:12;3.85;;;1.10;;
75589;SDS011;64169;47.240;11.312;2023-07-13T04:54:38;5.10;;;1.20;;
75589;SDS011;64169;47.240;11.312;2023-07-13T04:57:04;3.90;;;1.23;;
75589;SDS011;64169;47.240;11.312;2023-07-13T04:59:33;3.55;;;1.15;;
75589;SDS011;64169;47.240;11.312;2023-07-13T05:01:59;4.32;;;1.33;;
75589;SDS011;64169;47.240;11.312;2023-07-13T05:04:24;3.63;;;1.30;;
75589;SDS011;64169;47.240;11.312;2023-07-13T05:06:50;5.45;;;1.48;;
75589;SDS011;64169;47.240;11.312;2023-07-13T05:09:16;4.03;;;1.27;;
75589;SDS011;64169;47.240;11.312;2023-07-13T05:11:41;5.10;;;1.38;;
75589;SDS011;64169;47.240;11.312;2023-07-13T05:14:08;6.10;;;1.50;;
75589;SDS011;64169;47.240;11.312;2023-07-13T05:16:34;4.38;;;1.20;;
75589;SDS011;64169;47.240;11.312;2023-07-13T05:19:00;4.05;;;1.33;;
75589;SDS011;64169;47.240;11.312;2023-07-13T05:21:25;4.97;;;1.48;;
75589;SDS011;64169;47.240;11.312;2023-07-13T05:23:51;5.32;;;1.75;;
75589;SDS011;64169;47.240;11.312;2023-07-13T05:26:16;3.55;;;1.08;;
75589;SDS011;64169;47.240;11.312;2023-07-13T05:28:42;5.65;;;1.90;;
75589;SDS011;64169;47.240;11.312;2023-07-13T05:31:07;5.00;;;1.40;;
75589;SDS011;64169;47.240;11.312;2023-07-13T05:33:34;3.65;;;1.05;;
75589;SDS011;64169;47.240;11.312;2023-07-13T05:35:59;3.05;;;0.98;;
75589;SDS011;64169;47.240;11.312;2023-07-13T05:38:25;3.63;;;0.93;;
75589;SDS011;64169;47.240;11.312;2023-07-13T05:40:52;3.53;;;1.27;;
75589;SDS011;64169;47.240;11.312;2023-07-13T05:43:19;4.47;;;1.30;;
75589;SDS011;64169;47.240;11.312;2023-07-13T05:45:44;3.65;;;1.17;;
75589;SDS011;64169;47.240;11.312;2023-07-13T05:48:10;5.25;;;1.20;;
75589;SDS011;64169;47.240;11.312;2023-07-13T05:50:35;3.97;;;1.30;;
75589;SDS011;64169;47.240;11.312;2023-07-13T05:53:00;4.25;;;1.27;;
75589;SDS011;64169;47.240;11.312;2023-07-13T05:55:26;7.53;;;1.70;;
75589;SDS011;64169;47.240;11.312;2023-07-13T05:57:51;6.35;;;1.85;;
75589;SDS011;64169;47.240;11.312;2023-07-13T06:00:17;4.68;;;1.65;;
75589;SDS011;64169;47.240;11.312;2023-07-13T06:02:42;7.93;;;2.03;;
75589;SDS011;64169;47.240;11.312;2023-07-13T06:05:08;6.70;;;1.70;;
75589;SDS011;64169;47.240;11.312;2023-07-13T06:07:33;5.93;;;2.05;;
75589;SDS011;64169;47.240;11.312;2023-07-13T06:09:59;5.78;;;2.00;;
75589;SDS011;64169;47.240;11.312;2023-07-13T06:12:25;5.15;;;2.05;;
75589;SDS011;64169;47.240;11.312;2023-07-13T06:14:51;5.53;;;2.10;;
75589;SDS011;64169;47.240;11.312;2023-07-13T06:17:16;5.78;;;2.40;;
75589;SDS011;64169;47.240;11.312;2023-07-13T06:19:42;5.15;;;1.98;;
75589;SDS011;64169;47.240;11.312;2023-07-13T06:22:07;5.85;;;2.75;;
75589;SDS011;64169;47.240;11.312;2023-07-13T06:24:33;5.28;;;2.10;;
75589;SDS011;64169;47.240;11.312;2023-07-13T06:26:58;4.63;;;1.92;;
75589;SDS011;64169;47.240;11.312;2023-07-13T06:29:24;5.75;;;2.20;;
75589;SDS011;64169;47.240;11.312;2023-07-13T06:31:49;6.18;;;2.72;;
75589;SDS011;64169;47.240;11.312;2023-07-13T06:34:14;5.70;;;2.50;;
75589;SDS011;64169;47.240;11.312;2023-07-13T06:36:40;5.55;;;2.13;;
75589;SDS011;64169;47.240;11.312;2023-07-13T06:39:06;5.60;;;2.33;;
75589;SDS011;64169;47.240;11.312;2023-07-13T06:41:31;5.22;;;2.00;;
75589;SDS011;64169;47.240;11.312;2023-07-13T06:43:58;7.22;;;2.30;;
75589;SDS011;64169;47.240;11.312;2023-07-13T06:46:23;4.65;;;1.98;;
75589;SDS011;64169;47.240;11.312;2023-07-13T06:48:49;5.63;;;2.45;;
75589;SDS011;64169;47.240;11.312;2023-07-13T06:51:14;5.88;;;2.50;;
75589;SDS011;64169;47.240;11.312;2023-07-13T06:53:40;4.95;;;2.08;;
75589;SDS011;64169;47.240;11.312;2023-07-13T06:56:05;7.30;;;2.53;;
75589;SDS011;64169;47.240;11.312;2023-07-13T06:58:31;5.40;;;2.40;;
75589;SDS011;64169;47.240;11.312;2023-07-13T07:00:58;5.25;;;2.33;;
75589;SDS011;64169;47.240;11.312;2023-07-13T07:03:23;6.25;;;2.67;;
75589;SDS011;64169;47.240;11.312;2023-07-13T07:05:49;5.43;;;2.35;;
75589;SDS011;64169;47.240;11.312;2023-07-13T07:08:14;5.10;;;2.45;;
75589;SDS011;64169;47.240;11.312;2023-07-13T07:10:40;5.93;;;2.63;;
75589;SDS011;64169;47.240;11.312;2023-07-13T07:13:05;6.03;;;2.28;;
75589;SDS011;64169;47.240;11.312;2023-07-13T07:15:31;6.50;;;3.10;;
75589;SDS011;64169;47.240;11.312;2023-07-13T07:17:56;5.50;;;2.50;;
75589;SDS011;64169;47.240;11.312;2023-07-13T07:20:22;6.07;;;2.45;;
75589;SDS011;64169;47.240;11.312;2023-07-13T07:22:47;6.18;;;2.40;;
75589;SDS011;64169;47.240;11.312;2023-07-13T07:25:13;5.15;;;2.20;;
75589;SDS011;64169;47.240;11.312;2023-07-13T07:27:39;7.10;;;2.17;;
75589;SDS011;64169;47.240;11.312;2023-07-13T07:30:04;6.03;;;2.70;;
75589;SDS011;64169;47.240;11.312;2023-07-13T07:32:30;6.38;;;2.70;;
75589;SDS011;64169;47.240;11.312;2023-07-13T07:34:56;5.13;;;2.63;;
75589;SDS011;64169;47.240;11.312;2023-07-13T07:37:22;5.72;;;2.90;;
75589;SDS011;64169;47.240;11.312;2023-07-13T07:39:48;5.65;;;2.40;;
75589;SDS011;64169;47.240;11.312;2023-07-13T07:42:14;6.18;;;2.30;;
75589;SDS011;64169;47.240;11.312;2023-07-13T07:44:40;8.32;;;2.72;;
75589;SDS011;64169;47.240;11.312;2023-07-13T07:47:06;5.70;;;2.13;;
75589;SDS011;64169;47.240;11.312;2023-07-13T07:49:32;6.88;;;2.20;;
75589;SDS011;64169;47.240;11.312;2023-07-13T07:51:57;5.65;;;2.33;;
75589;SDS011;64169;47.240;11.312;2023-07-13T07:54:22;5.28;;;2.05;;
75589;SDS011;64169;47.240;11.312;2023-07-13T07:56:48;4.93;;;2.05;;
75589;SDS011;64169;47.240;11.312;2023-07-13T07:59:13;5.07;;;2.13;;
75589;SDS011;64169;47.240;11.312;2023-07-13T08:01:39;7.30;;;2.00;;
75589;SDS011;64169;47.240;11.312;2023-07-13T08:04:04;6.78;;;2.30;;
75589;SDS011;64169;47.240;11.312;2023-07-13T08:06:31;6.50;;;2.03;;
75589;SDS011;64169;47.240;11.312;2023-07-13T08:08:58;4.95;;;1.98;;
75589;SDS011;64169;47.240;11.312;2023-07-13T08:11:24;4.85;;;2.00;;
75589;SDS011;64169;47.240;11.312;2023-07-13T08:13:50;5.38;;;2.53;;
75589;SDS011;64169;47.240;11.312;2023-07-13T08:16:16;5.78;;;2.22;;
75589;SDS011;64169;47.240;11.312;2023-07-13T08:18:41;5.35;;;2.20;;
75589;SDS011;64169;47.240;11.312;2023-07-13T08:21:07;6.00;;;2.13;;
75589;SDS011;64169;47.240;11.312;2023-07-13T08:23:34;5.35;;;2.25;;
75589;SDS011;64169;47.240;11.312;2023-07-13T08:25:59;5.65;;;2.25;;
75589;SDS011;64169;47.240;11.312;2023-07-13T08:28:26;4.88;;;2.13;;
75589;SDS011;64169;47.240;11.312;2023-07-13T08:30:52;5.68;;;2.35;;
75589;SDS011;64169;47.240;11.312;2023-07-13T08:33:18;5.15;;;1.77;;
75589;SDS011;64169;47.240;11.312;2023-07-13T08:35:45;5.38;;;1.92;;
75589;SDS011;64169;47.240;11.312;2023-07-13T08:38:12;6.60;;;2.50;;
75589;SDS011;64169;47.240;11.312;2023-07-13T08:40:37;4.82;;;2.22;;
75589;SDS011;64169;47.240;11.312;2023-07-13T08:43:04;5.97;;;2.00;;
75589;SDS011;64169;47.240;11.312;2023-07-13T08:45:42;4.88;;;1.95;;
75589;SDS011;64169;47.240;11.312;2023-07-13T08:48:18;5.78;;;2.20;;
75589;SDS011;64169;47.240;11.312;2023-07-13T08:51:04;5.00;;;1.92;;
75589;SDS011;64169;47.240;11.312;2023-07-13T08:53:42;4.78;;;1.83;;
75589;SDS011;64169;47.240;11.312;2023-07-13T08:56:19;4.57;;;1.80;;
75589;SDS011;64169;47.240;11.312;2023-07-13T08:58:53;5.60;;;1.85;;
75589;SDS011;64169;47.240;11.312;2023-07-13T09:04:16;4.78;;;1.83;;
75589;SDS011;64169;47.240;11.312;2023-07-13T09:09:59;4.90;;;2.28;;
75589;SDS011;64169;47.240;11.312;2023-07-13T09:12:17;4.53;;;1.95;;
75589;SDS011;64169;47.240;11.312;2023-07-13T09:14:49;4.45;;;2.03;;
75589;SDS011;64169;47.240;11.312;2023-07-13T09:17:27;4.78;;;1.70;;
75589;SDS011;64169;47.240;11.312;2023-07-13T09:22:47;5.43;;;2.25;;
75589;SDS011;64169;47.240;11.312;2023-07-13T09:27:50;5.80;;;2.40;;
75589;SDS011;64169;47.240;11.312;2023-07-13T09:30:33;6.65;;;2.50;;
75589;SDS011;64169;47.240;11.312;2023-07-13T09:33:01;6.18;;;2.67;;
75589;SDS011;64169;47.240;11.312;2023-07-13T09:35:28;7.03;;;2.08;;
75589;SDS011;64169;47.240;11.312;2023-07-13T09:37:58;6.60;;;2.92;;
75589;SDS011;64169;47.240;11.312;2023-07-13T09:40:30;6.82;;;2.22;;
75589;SDS011;64169;47.240;11.312;2023-07-13T09:43:02;5.80;;;2.90;;
75589;SDS011;64169;47.240;11.312;2023-07-13T09:45:34;7.57;;;2.60;;
75589;SDS011;64169;47.240;11.312;2023-07-13T09:48:06;5.80;;;2.35;;
75589;SDS011;64169;47.240;11.312;2023-07-13T09:50:35;5.60;;;2.10;;
75589;SDS011;64169;47.240;11.312;2023-07-13T09:53:02;7.00;;;2.47;;
75589;SDS011;64169;47.240;11.312;2023-07-13T09:55:37;4.93;;;2.03;;
75589;SDS011;64169;47.240;11.312;2023-07-13T09:58:09;5.38;;;2.20;;
75589;SDS011;64169;47.240;11.312;2023-07-13T10:00:53;5.80;;;2.08;;
75589;SDS011;64169;47.240;11.312;2023-07-13T10:03:30;4.57;;;1.63;;
75589;SDS011;64169;47.240;11.312;2023-07-13T10:08:41;3.85;;;1.48;;
75589;SDS011;64169;47.240;11.312;2023-07-13T10:13:35;5.55;;;1.65;;
75589;SDS011;64169;47.240;11.312;2023-07-13T10:16:02;5.38;;;1.73;;
75589;SDS011;64169;47.240;11.312;2023-07-13T10:18:31;5.65;;;1.60;;
75589;SDS011;64169;47.240;11.312;2023-07-13T10:21:12;6.55;;;1.95;;
75589;SDS011;64169;47.240;11.312;2023-07-13T10:23:57;3.63;;;1.38;;
75589;SDS011;64169;47.240;11.312;2023-07-13T10:26:45;5.30;;;1.42;;
75589;SDS011;64169;47.240;11.312;2023-07-13T10:29:13;4.13;;;1.30;;
75589;SDS011;64169;47.240;11.312;2023-07-13T10:31:39;4.68;;;1.20;;
75589;SDS011;64169;47.240;11.312;2023-07-13T10:34:09;5.13;;;1.52;;
75589;SDS011;64169;47.240;11.312;2023-07-13T10:36:45;4.07;;;1.35;;
75589;SDS011;64169;47.240;11.312;2023-07-13T10:39:22;5.68;;;1.30;;
75589;SDS011;64169;47.240;11.312;2023-07-13T10:41:52;3.17;;;1.30;;
75589;SDS011;64169;47.240;11.312;2023-07-13T10:44:21;3.47;;;1.23;;
75589;SDS011;64169;47.240;11.312;2023-07-13T10:46:52;3.00;;;1.25;;
75589;SDS011;64169;47.240;11.312;2023-07-13T10:49:19;4.85;;;1.65;;
75589;SDS011;64169;47.240;11.312;2023-07-13T10:51:45;4.28;;;1.27;;
75589;SDS011;64169;47.240;11.312;2023-07-13T10:56:44;4.50;;;1.40;;
75589;SDS011;64169;47.240;11.312;2023-07-13T10:59:12;4.22;;;1.48;;
75589;SDS011;64169;47.240;11.312;2023-07-13T11:04:21;4.82;;;1.52;;
75589;SDS011;64169;47.240;11.312;2023-07-13T11:06:47;4.82;;;1.55;;
75589;SDS011;64169;47.240;11.312;2023-07-13T11:09:31;4.93;;;1.40;;
75589;SDS011;64169;47.240;11.312;2023-07-13T11:12:00;3.50;;;1.40;;
75589;SDS011;64169;47.240;11.312;2023-07-13T11:15:11;3.47;;;1.00;;
75589;SDS011;64169;47.240;11.312;2023-07-13T11:20:37;3.72;;;1.00;;
75589;SDS011;64169;47.240;11.312;2023-07-13T11:23:16;3.80;;;1.10;;
75589;SDS011;64169;47.240;11.312;2023-07-13T11:25:43;2.97;;;1.02;;
75589;SDS011;64169;47.240;11.312;2023-07-13T11:36:03;4.63;;;1.58;;
75589;SDS011;64169;47.240;11.312;2023-07-13T11:41:10;4.82;;;1.70;;
75589;SDS011;64169;47.240;11.312;2023-07-13T11:43:40;5.25;;;1.60;;
75589;SDS011;64169;47.240;11.312;2023-07-13T11:46:25;3.97;;;1.30;;
75589;SDS011;64169;47.240;11.312;2023-07-13T11:48:52;4.03;;;1.58;;
75589;SDS011;64169;47.240;11.312;2023-07-13T11:51:25;4.70;;;1.58;;
75589;SDS011;64169;47.240;11.312;2023-07-13T11:53:53;5.03;;;1.95;;
75589;SDS011;64169;47.240;11.312;2023-07-13T11:56:20;4.97;;;1.92;;
75589;SDS011;64169;47.240;11.312;2023-07-13T11:58:48;5.03;;;1.83;;
75589;SDS011;64169;47.240;11.312;2023-07-13T12:01:21;4.28;;;1.50;;
75589;SDS011;64169;47.240;11.312;2023-07-13T12:03:48;7.30;;;1.40;;
75589;SDS011;64169;47.240;11.312;2023-07-13T12:06:24;4.38;;;1.33;;
75589;SDS011;64169;47.240;11.312;2023-07-13T12:08:51;4.07;;;1.17;;
75589;SDS011;64169;47.240;11.312;2023-07-13T12:11:17;2.47;;;0.80;;
75589;SDS011;64169;47.240;11.312;2023-07-13T12:13:44;2.67;;;0.90;;
75589;SDS011;64169;47.240;11.312;2023-07-13T12:16:32;2.72;;;0.93;;
75589;SDS011;64169;47.240;11.312;2023-07-13T12:18:58;2.17;;;0.77;;
75589;SDS011;64169;47.240;11.312;2023-07-13T12:21:37;4.35;;;0.90;;
75589;SDS011;64169;47.240;11.312;2023-07-13T12:24:03;3.25;;;0.82;;
75589;SDS011;64169;47.240;11.312;2023-07-13T12:26:30;3.33;;;0.95;;
75589;SDS011;64169;47.240;11.312;2023-07-13T12:28:58;2.70;;;0.73;;
75589;SDS011;64169;47.240;11.312;2023-07-13T12:34:17;2.15;;;0.70;;
75589;SDS011;64169;47.240;11.312;2023-07-13T12:36:56;3.55;;;0.93;;
75589;SDS011;64169;47.240;11.312;2023-07-13T12:41:51;1.85;;;0.70;;
75589;SDS011;64169;47.240;11.312;2023-07-13T12:44:18;2.95;;;0.80;;
75589;SDS011;64169;47.240;11.312;2023-07-13T12:46:55;2.50;;;0.80;;
75589;SDS011;64169;47.240;11.312;2023-07-13T12:49:30;2.53;;;0.80;;
75589;SDS011;64169;47.240;11.312;2023-07-13T12:51:58;1.85;;;0.73;;
75589;SDS011;64169;47.240;11.312;2023-07-13T12:54:26;2.47;;;0.60;;
75589;SDS011;64169;47.240;11.312;2023-07-13T12:56:52;2.20;;;0.60;;
75589;SDS011;64169;47.240;11.312;2023-07-13T12:59:19;2.72;;;0.65;;
75589;SDS011;64169;47.240;11.312;2023-07-13T13:01:46;1.60;;;0.68;;
75589;SDS011;64169;47.240;11.312;2023-07-13T13:04:11;1.77;;;0.70;;
75589;SDS011;64169;47.240;11.312;2023-07-13T13:06:38;2.13;;;0.90;;
75589;SDS011;64169;47.240;11.312;2023-07-13T13:09:06;3.45;;;0.68;;
75589;SDS011;64169;47.240;11.312;2023-07-13T13:11:36;2.17;;;0.50;;
75589;SDS011;64169;47.240;11.312;2023-07-13T13:14:02;2.13;;;0.57;;
75589;SDS011;64169;47.240;11.312;2023-07-13T13:16:30;2.13;;;0.65;;
75589;SDS011;64169;47.240;11.312;2023-07-13T13:18:57;2.83;;;0.57;;
75589;SDS011;64169;47.240;11.312;2023-07-13T13:21:25;1.98;;;0.63;;
75589;SDS011;64169;47.240;11.312;2023-07-13T13:23:51;1.67;;;0.50;;
75589;SDS011;64169;47.240;11.312;2023-07-13T13:26:18;2.00;;;0.65;;
75589;SDS011;64169;47.240;11.312;2023-07-13T13:28:44;1.48;;;0.50;;
75589;SDS011;64169;47.240;11.312;2023-07-13T13:31:11;2.00;;;0.52;;
75589;SDS011;64169;47.240;11.312;2023-07-13T13:33:43;3.30;;;0.75;;
75589;SDS011;64169;47.240;11.312;2023-07-13T13:36:20;3.10;;;0.60;;
75589;SDS011;64169;47.240;11.312;2023-07-13T13:38:49;1.38;;;0.50;;
75589;SDS011;64169;47.240;11.312;2023-07-13T13:41:15;2.78;;;0.70;;
75589;SDS011;64169;47.240;11.312;2023-07-13T13:43:41;2.13;;;0.63;;
75589;SDS011;64169;47.240;11.312;2023-07-13T13:48:50;1.33;;;0.60;;
75589;SDS011;64169;47.240;11.312;2023-07-13T13:51:19;2.00;;;0.63;;
75589;SDS011;64169;47.240;11.312;2023-07-13T13:53:46;1.45;;;0.50;;
75589;SDS011;64169;47.240;11.312;2023-07-13T13:56:12;3.88;;;0.73;;
75589;SDS011;64169;47.240;11.312;2023-07-13T13:58:38;1.42;;;0.50;;
75589;SDS011;64169;47.240;11.312;2023-07-13T14:01:04;1.20;;;0.50;;
75589;SDS011;64169;47.240;11.312;2023-07-13T14:03:34;2.17;;;0.75;;
75589;SDS011;64169;47.240;11.312;2023-07-13T14:05:59;3.22;;;0.65;;
75589;SDS011;64169;47.240;11.312;2023-07-13T14:08:25;2.30;;;0.82;;
75589;SDS011;64169;47.240;11.312;2023-07-13T14:10:51;3.15;;;0.85;;
75589;SDS011;64169;47.240;11.312;2023-07-13T14:13:20;2.10;;;0.73;;
75589;SDS011;64169;47.240;11.312;2023-07-13T14:15:48;2.63;;;0.60;;
75589;SDS011;64169;47.240;11.312;2023-07-13T14:18:13;1.48;;;0.50;;
75589;SDS011;64169;47.240;11.312;2023-07-13T14:20:43;2.85;;;0.70;;
75589;SDS011;64169;47.240;11.312;2023-07-13T14:23:10;2.35;;;0.63;;
75589;SDS011;64169;47.240;11.312;2023-07-13T14:25:37;5.82;;;0.90;;
75589;SDS011;64169;47.240;11.312;2023-07-13T14:28:16;1.83;;;0.50;;
75589;SDS011;64169;47.240;11.312;2023-07-13T14:30:49;3.35;;;0.70;;
75589;SDS011;64169;47.240;11.312;2023-07-13T14:33:15;3.08;;;0.80;;
75589;SDS011;64169;47.240;11.312;2023-07-13T14:35:40;3.22;;;0.90;;
75589;SDS011;64169;47.240;11.312;2023-07-13T14:38:09;2.75;;;0.88;;
75589;SDS011;64169;47.240;11.312;2023-07-13T14:40:36;2.63;;;0.90;;
75589;SDS011;64169;47.240;11.312;2023-07-13T14:43:03;2.25;;;0.60;;
75589;SDS011;64169;47.240;11.312;2023-07-13T14:45:28;3.42;;;0.80;;
75589;SDS011;64169;47.240;11.312;2023-07-13T14:47:55;2.70;;;0.90;;
75589;SDS011;64169;47.240;11.312;2023-07-13T14:50:24;3.35;;;0.90;;
75589;SDS011;64169;47.240;11.312;2023-07-13T14:52:52;3.72;;;0.93;;
75589;SDS011;64169;47.240;11.312;2023-07-13T14:55:18;2.72;;;0.90;;
75589;SDS011;64169;47.240;11.312;2023-07-13T14:57:44;5.03;;;1.02;;
75589;SDS011;64169;47.240;11.312;2023-07-13T15:02:40;5.68;;;1.70;;
75589;SDS011;64169;47.240;11.312;2023-07-13T15:05:18;5.32;;;1.20;;
75589;SDS011;64169;47.240;11.312;2023-07-13T15:07:48;3.85;;;1.20;;
75589;SDS011;64169;47.240;11.312;2023-07-13T15:12:43;4.35;;;1.20;;
75589;SDS011;64169;47.240;11.312;2023-07-13T15:15:09;6.85;;;2.30;;
75589;SDS011;64169;47.240;11.312;2023-07-13T15:17:36;7.55;;;1.60;;
75589;SDS011;64169;47.240;11.312;2023-07-13T15:20:06;5.00;;;1.20;;
75589;SDS011;64169;47.240;11.312;2023-07-13T15:22:43;5.45;;;1.40;;
75589;SDS011;64169;47.240;11.312;2023-07-13T15:25:14;5.07;;;1.30;;
75589;SDS011;64169;47.240;11.312;2023-07-13T15:27:42;4.07;;;1.15;;
75589;SDS011;64169;47.240;11.312;2023-07-13T15:30:07;4.63;;;1.20;;